Main page
METAR-TAF:

METAR-TAF

Airports :

Sion Airport

Sion, Switzerland

latitude: 46-13N, longitude: 007-20E, elevation: 482 m

Current weather observation

The report was made 24 minutes ago, at 13:20 UTC
Wind 9 kt from the West/Southwest
Temperature 26°C
Humidity 45%
Pressure 1013 hPa
Visibility 10 km or more
Scattered clouds at a height of 13000 ft

METAR: LSGS 171320Z 24009KT 9999 SCT130 26/13 Q1013

Time: 15:44 (13:44 UTC)

Forecast

The report was made 2 hours and 19 minutes ago, at 11:25 UTC
Forecast valid from 17 at 12 UTC to 17 at 21 UTC
Wind 10 kt from the West/Southwest
Visibility 10 km or more
Few clouds at a height of 10000 ft
Scattered clouds at a height of 13000 ft
Becoming
from 17 at 19 UTC to 17 at 21 UTC
Wind 1 kt from variable directions
Visibility 10 km or more
no clouds below 1500 m and no cumulonimbus

TAF: LSGS 171125Z 1712/1721 25010KT 9999 FEW100 SCT130 BECMG 1719/1721 VRB01KT CAVOK

Weather observations and forecasts of more than 4000 airports (METAR and TAF reports).

The available stations are represented by yellow and red dots on the map.

Hover mouse over dot to see the name of the station.

Then click to see weather observations and forecasts.

To change the map : click on the green buttons with a black cross to zoom in, on the green button with a dash to zoom out, or on the green arrows for adjacent maps.


METAR-TAF: